Time;durP1;ratioP1;P1;durP2;ratioP2;P2;SDS_P1;SDS_P2;PMS_P1;PMS_P2;Temp;Humidity;BMP_temperature;BMP_pressure;BME280_temperature;BME280_humidity;BME280_pressure;Samples;Min_cycle;Max_cycle;Signal;HPM_P1;HPM_P2
2023/03/16 14:32:29;;;;;;;134.38;100.95;;;;;;;21.54;50.78;100274.59;4958234;27;3745864;-49
2023/03/16 14:35:14;;;;;;;135.50;99.82;;;;;;;22.50;48.37;100269.53;5089151;28;20044;-51
2023/03/16 14:37:42;;;;;;;134.00;94.20;;;;;;;23.20;45.89;100284.84;5086025;28;20056;-53
2023/03/16 14:40:30;;;;;;;122.75;90.78;;;;;;;23.72;44.61;100287.72;5085559;28;20029;-48
2023/03/16 14:43:00;;;;;;;121.55;90.57;;;;;;;24.04;43.96;100290.44;5088760;28;20063;-51
2023/03/16 14:45:34;;;;;;;128.68;93.93;;;;;;;24.24;43.18;100286.97;5089195;28;20453;-51
2023/03/16 14:48:06;;;;;;;112.43;84.97;;;;;;;24.43;42.94;100286.13;5089155;28;20041;-52
2023/03/16 14:50:34;;;;;;;113.82;82.18;;;;;;;24.47;42.63;100300.09;5085383;28;20028;-48
2023/03/16 14:53:03;;;;;;;107.38;81.70;;;;;;;24.55;42.03;100310.59;5088798;28;20494;-49
2023/03/16 14:55:32;;;;;;;99.60;75.53;;;;;;;24.63;42.26;100314.09;5089387;28;20091;-49
2023/03/16 14:58:01;;;;;;;105.30;75.90;;;;;;;24.66;42.11;100316.69;5088691;28;20039;-50
2023/03/16 15:00:29;;;;;;;101.40;73.88;;;;;;;24.68;41.87;100308.84;5085569;28;20932;-50
2023/03/16 15:03:01;;;;;;;102.25;75.30;;;;;;;24.69;41.85;100313.22;5088672;28;20021;-52
2023/03/16 15:05:34;;;;;;;104.45;74.43;;;;;;;24.64;41.93;100299.22;5084983;28;20028;-50
2023/03/16 15:08:02;;;;;;;100.50;73.00;;;;;;;24.75;41.43;100301.88;5087398;28;20032;-53
2023/03/16 15:10:31;;;;;;;97.93;70.15;;;;;;;24.73;41.54;100300.13;5084907;28;20496;-49
2023/03/16 15:13:11;;;;;;;100.03;72.03;;;;;;;24.80;41.41;100294.88;5088751;28;20548;-50
2023/03/16 15:15:41;;;;;;;96.00;65.57;;;;;;;24.64;41.07;100245.03;5088830;28;20060;-53
2023/03/16 15:18:08;;;;;;;99.30;67.63;;;;;;;24.64;41.14;100247.66;5085098;28;20033;-49
2023/03/16 15:20:41;;;;;;;91.13;65.75;;;;;;;24.78;41.38;100270.41;5081094;28;20032;-49
2023/03/16 15:23:15;;;;;;;91.20;66.00;;;;;;;24.82;41.00;100280.88;5084454;28;20032;-50
2023/03/16 15:25:45;;;;;;;88.45;61.28;;;;;;;24.86;40.86;100255.50;5085370;28;20087;-49
2023/03/16 15:28:23;;;;;;;90.70;64.88;;;;;;;24.85;41.27;100254.66;5088358;28;20039;-51
2023/03/16 15:30:56;;;;;;;88.63;61.15;;;;;;;24.88;40.99;100248.50;5084252;28;20109;-47
2023/03/16 15:33:24;;;;;;;85.45;60.35;;;;;;;24.88;41.05;100253.75;5088079;28;20078;-47
2023/03/16 15:35:56;;;;;;;83.53;58.95;;;;;;;24.93;40.83;100256.38;5089215;28;20059;-51
2023/03/16 15:38:30;;;;;;;77.70;57.97;;;;;;;24.99;40.57;100270.34;5088187;28;20520;-49
2023/03/16 15:40:59;;;;;;;81.53;56.92;;;;;;;24.91;40.61;100238.03;5089072;28;20032;-49
2023/03/16 15:43:29;;;;;;;81.05;56.20;;;;;;;24.97;40.29;100251.13;5077358;28;20036;-46
2023/03/16 15:45:58;;;;;;;79.38;58.13;;;;;;;24.93;40.62;100261.63;5075313;28;20032;-49
2023/03/16 15:48:27;;;;;;;80.55;54.63;;;;;;;24.96;40.35;100266.88;5075632;28;20035;-46
2023/03/16 15:50:57;;;;;;;78.72;53.50;;;;;;;24.94;40.30;100269.50;5075059;28;20032;-49
2023/03/16 15:53:33;;;;;;;75.78;55.08;;;;;;;24.90;40.67;100264.28;5075293;28;20474;-49
2023/03/16 15:56:05;;;;;;;80.25;54.72;;;;;;;24.87;40.47;100255.53;5074291;28;20060;-49
2023/03/16 15:58:35;;;;;;;81.72;56.05;;;;;;;24.91;40.37;100264.25;5075103;28;20375;-50
2023/03/16 16:01:05;;;;;;;76.75;53.40;;;;;;;24.92;40.16;100254.63;5074871;28;20482;-49
2023/03/16 16:03:34;;;;;;;73.25;50.83;;;;;;;24.93;40.04;100253.75;5075291;28;20082;-49
2023/03/16 16:06:03;;;;;;;73.30;51.03;;;;;;;24.93;39.92;100257.25;5058623;28;20103;-50
2023/03/16 16:08:31;;;;;;;74.32;51.00;;;;;;;24.88;40.43;100259.00;5055434;28;20506;-49
2023/03/16 16:11:00;;;;;;;71.70;51.03;;;;;;;24.82;40.37;100246.78;5055150;28;20033;-47
2023/03/16 16:13:30;;;;;;;70.10;51.45;;;;;;;24.88;39.95;100265.16;5053302;28;20032;-47
2023/03/16 16:15:58;;;;;;;67.57;48.08;;;;;;;24.91;40.03;100258.13;5054490;28;20033;-48
2023/03/16 16:18:35;;;;;;;72.38;50.83;;;;;;;24.85;39.91;100251.13;5055260;28;20425;-49
2023/03/16 16:21:05;;;;;;;71.55;49.90;;;;;;;24.83;39.98;100243.28;5054680;28;20063;-49
2023/03/16 16:23:34;;;;;;;73.80;51.50;;;;;;;24.86;40.15;100237.16;5053660;28;20086;-50
2023/03/16 16:26:07;;;;;;;68.68;48.40;;;;;;;24.79;39.99;100238.06;5054832;28;20033;-50
2023/03/16 16:28:36;;;;;;;68.38;49.40;;;;;;;24.88;39.90;100248.50;5053618;28;20394;-49
2023/03/16 16:31:08;;;;;;;71.25;47.85;;;;;;;24.84;40.12;100246.75;5054586;28;20063;-50
2023/03/16 16:33:37;;;;;;;69.90;47.53;;;;;;;24.84;40.01;100234.53;5053521;28;20545;-47
2023/03/16 16:36:10;;;;;;;72.28;49.33;;;;;;;24.81;40.06;100223.19;5054266;28;20028;-51
2023/03/16 16:38:39;;;;;;;69.60;48.17;;;;;;;24.79;39.92;100224.94;5054348;28;20068;-49
2023/03/16 16:41:09;;;;;;;68.40;48.70;;;;;;;24.82;40.04;100227.56;5053930;28;20386;-47
2023/03/16 16:43:41;;;;;;;72.55;52.28;;;;;;;24.81;40.18;100233.69;5053306;28;20032;-51
2023/03/16 16:46:21;;;;;;;70.80;50.70;;;;;;;24.76;40.18;100217.94;5054759;28;20021;-51
2023/03/16 16:48:53;;;;;;;72.60;49.58;;;;;;;24.75;39.90;100215.31;5053232;28;20423;-48
2023/03/16 16:51:25;;;;;;;73.45;51.35;;;;;;;24.76;40.20;100223.19;5054288;28;20134;-47
2023/03/16 16:53:57;;;;;;;73.95;51.28;;;;;;;24.73;39.93;100234.56;5053571;28;20478;-51
2023/03/16 16:56:29;;;;;;;73.93;53.13;;;;;;;24.69;40.43;100229.28;5054482;28;20028;-53
2023/03/16 16:58:58;;;;;;;77.57;53.67;;;;;;;24.70;40.23;100217.97;5054065;28;20359;-50
2023/03/16 17:01:31;;;;;;;75.40;53.55;;;;;;;24.71;40.26;100217.09;5054320;28;20036;-47
2023/03/16 17:04:01;;;;;;;66.72;49.78;;;;;;;24.72;39.99;100222.31;5053946;28;20025;-50
2023/03/16 17:06:30;;;;;;;74.82;50.97;;;;;;;24.69;40.23;100219.66;5053066;28;20025;-48
2023/03/16 17:08:57;;;;;;;67.90;49.42;;;;;;;24.66;40.34;100227.53;5061810;28;20500;-51
2023/03/16 17:11:28;;;;;;;75.95;50.90;;;;;;;24.61;40.27;100226.69;5066303;28;20470;-55
2023/03/16 17:13:59;;;;;;;74.07;49.50;;;;;;;24.60;40.63;100224.03;5070942;28;20390;-48
2023/03/16 17:16:30;;;;;;;75.05;50.47;;;;;;;24.64;40.25;100215.31;5071723;28;20020;-51
2023/03/16 17:18:59;;;;;;;76.20;50.75;;;;;;;24.76;40.17;100217.06;5071132;28;20024;-52
2023/03/16 17:21:29;;;;;;;71.70;48.03;;;;;;;24.75;40.08;100210.94;5069486;28;20028;-48
2023/03/16 17:23:59;;;;;;;75.57;48.75;;;;;;;24.76;39.96;100222.31;5072340;28;20031;-54
2023/03/16 17:26:31;;;;;;;70.32;48.55;;;;;;;24.69;40.06;100230.16;5073768;28;20020;-53
2023/03/16 17:29:00;;;;;;;74.32;49.78;;;;;;;24.66;40.03;100232.78;5073228;28;20028;-49
2023/03/16 17:31:33;;;;;;;70.05;50.25;;;;;;;24.66;40.31;100231.91;5073045;28;20048;-51
2023/03/16 17:34:03;;;;;;;67.97;49.85;;;;;;;24.75;40.10;100231.06;5072831;28;20033;-49
2023/03/16 17:36:31;;;;;;;74.30;51.13;;;;;;;24.70;39.94;100229.31;5073603;28;20534;-49
2023/03/16 17:39:00;;;;;;;81.00;54.33;;;;;;;24.76;39.71;100227.56;5073024;28;20081;-52
2023/03/16 17:41:30;;;;;;;68.82;48.90;;;;;;;24.72;39.86;100229.31;5073206;28;20381;-52
2023/03/16 17:44:05;;;;;;;72.57;50.13;;;;;;;24.61;40.20;100217.94;5071892;28;20071;-50
2023/03/16 17:46:33;;;;;;;73.55;47.65;;;;;;;24.63;39.78;100222.31;5072006;28;20024;-49
2023/03/16 17:49:02;;;;;;;65.93;47.83;;;;;;;24.67;39.80;100212.69;5071679;28;20029;-52
2023/03/16 17:51:31;;;;;;;71.72;48.45;;;;;;;24.73;39.99;100215.34;5073096;28;20111;-49
2023/03/16 17:53:59;;;;;;;80.78;53.25;;;;;;;24.70;39.80;100218.81;5072853;28;20025;-49
2023/03/16 17:56:30;;;;;;;78.10;53.60;;;;;;;24.75;39.43;100218.81;5073244;28;20481;-48
2023/03/16 17:58:57;;;;;;;73.32;51.83;;;;;;;24.63;39.37;100179.47;5071158;28;20127;-51
2023/03/16 18:01:32;;;;;;;78.35;53.50;;;;;;;24.85;39.57;100211.78;5071782;28;20028;-48
2023/03/16 18:04:02;;;;;;;76.13;53.60;;;;;;;24.76;40.04;100214.44;5072713;28;20542;-48
2023/03/16 18:06:31;;;;;;;77.45;55.22;;;;;;;24.72;39.95;100217.06;5072769;28;20032;-52
2023/03/16 18:08:59;;;;;;;77.72;51.78;;;;;;;24.77;39.87;100229.31;5071762;28;20021;-52
2023/03/16 18:11:34;;;;;;;79.18;54.70;;;;;;;24.71;39.85;100232.81;5072803;28;20508;-49
2023/03/16 18:14:02;;;;;;;;;;;;;;;24.84;39.87;100241.50;5073001;28;20044;-50
2023/03/16 18:16:32;;;;;;;72.50;50.90;;;;;;;24.81;39.74;100234.53;5072870;28;19918;-47
2023/03/16 18:19:04;;;;;;;77.30;53.30;;;;;;;24.90;39.52;100235.41;5072180;28;20028;-49
2023/03/16 18:21:35;;;;;;;70.90;51.42;;;;;;;24.94;39.40;100230.16;5052629;28;20024;-53
2023/03/16 18:24:03;;;;;;;77.47;52.10;;;;;;;24.93;39.60;100225.78;5052908;28;20037;-52
2023/03/16 18:26:32;;;;;;;81.32;52.65;;;;;;;24.88;39.78;100235.41;5051926;28;20029;-50
2023/03/16 18:29:01;;;;;;;98.43;59.60;;;;;;;24.88;39.91;100238.03;5052565;28;20028;-49
2023/03/16 18:31:29;;;;;;;106.93;63.28;;;;;;;24.86;40.22;100232.78;5052533;28;20053;-50
2023/03/16 18:34:00;;;;;;;109.35;66.20;;;;;;;24.91;40.56;100231.88;5051080;28;20033;-49
2023/03/16 18:36:33;;;;;;;107.50;65.45;;;;;;;24.95;40.48;100231.91;5052442;28;20036;-52
2023/03/16 18:39:04;;;;;;;109.07;68.35;;;;;;;24.99;40.49;100236.22;5051047;28;20021;-49
2023/03/16 18:41:34;;;;;;;104.55;63.80;;;;;;;25.04;40.48;100231.00;5052823;28;20390;-51
2023/03/16 18:44:26;;;;;;;110.13;66.38;;;;;;;25.03;40.34;100237.97;5052610;28;20056;-49
2023/03/16 18:46:58;;;;;;;108.07;65.22;;;;;;;25.12;40.33;100234.44;5051952;28;20033;-47
2023/03/16 18:49:34;;;;;;;109.78;67.53;;;;;;;25.18;40.11;100223.06;5050958;28;20043;-47
2023/03/16 18:52:03;;;;;;;117.20;73.78;;;;;;;25.22;40.19;100218.69;5052878;28;20029;-51
2023/03/16 18:54:34;;;;;;;118.50;73.50;;;;;;;25.26;40.33;100221.28;5052637;28;20056;-53
2023/03/16 18:57:03;;;;;;;131.30;77.05;;;;;;;25.30;40.51;100223.03;5051197;28;20032;-49
2023/03/16 18:59:32;;;;;;;124.88;75.13;;;;;;;25.34;40.03;100221.25;5050763;28;20025;-52
2023/03/16 19:02:00;;;;;;;127.60;80.07;;;;;;;25.37;40.18;100228.22;5052576;28;20485;-50
2023/03/16 19:04:31;;;;;;;124.25;77.38;;;;;;;25.40;39.90;100231.69;5052444;28;20059;-50
2023/03/16 19:07:00;;;;;;;120.05;74.53;;;;;;;25.42;40.07;100231.75;5034585;28;20501;-46
2023/03/16 19:09:30;;;;;;;120.95;76.30;;;;;;;25.49;39.82;100222.94;5052005;28;20383;-49
2023/03/16 19:11:59;;;;;;;110.90;69.72;;;;;;;25.52;39.90;100228.19;5052166;28;20125;-49
2023/03/16 19:14:32;;;;;;;109.93;69.63;;;;;;;25.53;40.01;100224.69;5052463;28;20056;-46
2023/03/16 19:17:01;;;;;;;108.53;69.72;;;;;;;25.63;39.42;100220.25;5052321;28;20515;-49
2023/03/16 19:19:29;;;;;;;107.18;68.10;;;;;;;25.60;39.83;100223.78;5056194;28;20394;-46
2023/03/16 19:22:04;;;;;;;115.38;68.78;;;;;;;25.58;39.90;100230.78;5056186;28;20020;-49
2023/03/16 19:24:36;;;;;;;111.88;71.13;;;;;;;25.61;39.54;100228.16;5055846;28;20067;-49
2023/03/16 19:27:26;;;;;;;109.25;67.25;;;;;;;25.66;39.66;100236.00;5038469;28;20043;-47
2023/03/16 19:29:54;;;;;;;115.10;69.13;;;;;;;25.72;39.63;100245.59;5056080;28;20032;-48
2023/03/16 19:32:23;;;;;;;102.22;65.10;;;;;;;25.74;39.36;100241.22;5056051;28;20041;-49
2023/03/16 19:34:52;;;;;;;99.57;66.13;;;;;;;25.81;39.33;100242.03;5054762;28;20033;-47
2023/03/16 19:37:22;;;;;;;101.05;65.35;;;;;;;25.83;39.37;100249.03;5048973;28;20073;-49
2023/03/16 19:39:51;;;;;;;100.00;63.17;;;;;;;25.83;39.45;100240.28;5029021;28;20022;-51
2023/03/16 19:42:21;;;;;;;98.15;62.90;;;;;;;25.82;39.29;100247.28;5034883;28;20475;-48
2023/03/16 19:44:50;;;;;;;96.85;60.22;;;;;;;25.90;39.24;100252.47;5033855;28;20034;-53
2023/03/16 19:47:26;;;;;;;92.35;59.03;;;;;;;25.95;39.21;100263.84;5029301;28;20021;-49
2023/03/16 19:49:54;;;;;;;99.53;57.67;;;;;;;25.95;39.45;100266.47;5034957;28;20036;-50
2023/03/16 19:52:21;;;;;;;98.68;60.65;;;;;;;26.02;39.30;100277.81;5034754;28;20033;-50
2023/03/16 19:54:49;;;;;;;87.80;57.30;;;;;;;26.07;39.17;100287.41;5034832;28;20029;-49
2023/03/16 19:57:19;;;;;;;87.38;57.33;;;;;;;26.09;39.21;100277.75;5032770;28;20120;-49
2023/03/16 19:59:49;;;;;;;95.05;57.30;;;;;;;26.10;39.29;100273.41;5031058;28;20025;-51
2023/03/16 20:02:37;;;;;;;89.88;56.28;;;;;;;26.18;39.03;100276.00;5034758;28;20029;-50
2023/03/16 20:05:05;;;;;;;87.20;55.70;;;;;;;26.13;38.97;100275.16;5028539;28;20120;-49
2023/03/16 20:07:36;;;;;;;86.68;57.05;;;;;;;26.14;39.09;100280.41;5033499;28;20108;-48
2023/03/16 20:10:05;;;;;;;93.68;54.20;;;;;;;26.17;39.01;100290.03;5034791;28;20095;-54
2023/03/16 20:12:33;;;;;;;85.28;53.88;;;;;;;26.17;39.01;100285.63;5033482;28;20025;-52
2023/03/16 20:15:00;;;;;;;82.95;51.70;;;;;;;26.19;38.84;100289.13;5034486;28;20033;-53
2023/03/16 20:17:28;;;;;;;85.10;52.05;;;;;;;26.11;39.08;100285.69;5032857;28;20487;-52
2023/03/16 20:19:57;;;;;;;78.43;50.70;;;;;;;26.09;39.03;100300.56;5033059;28;20036;-52
2023/03/16 20:22:27;;;;;;;76.93;48.53;;;;;;;26.12;39.03;100304.94;5033133;28;20057;-48
2023/03/16 20:24:56;;;;;;;76.22;47.35;;;;;;;26.14;38.78;100301.44;5034250;28;20033;-51
2023/03/16 20:27:25;;;;;;;72.35;47.00;;;;;;;26.15;38.83;100302.31;5033583;28;20117;-50
2023/03/16 20:29:52;;;;;;;70.57;45.72;;;;;;;26.13;38.80;100307.59;5034195;28;20053;-51
2023/03/16 20:32:22;;;;;;;70.90;46.33;;;;;;;26.12;39.05;100305.84;5029313;28;20045;-52
2023/03/16 20:34:52;;;;;;;65.07;45.22;;;;;;;26.10;38.97;100310.19;5034401;28;20017;-51
2023/03/16 20:37:22;;;;;;;66.13;45.15;;;;;;;26.10;38.81;100307.56;5032859;28;20030;-51
2023/03/16 20:39:52;;;;;;;63.65;41.55;;;;;;;26.11;38.80;100313.69;5034002;28;20049;-53
2023/03/16 20:42:25;;;;;;;69.57;43.83;;;;;;;26.15;38.64;100315.44;5034032;28;20032;-50
2023/03/16 20:44:53;;;;;;;57.92;40.88;;;;;;;26.14;38.67;100316.34;5028795;28;20087;-51
2023/03/16 20:47:23;;;;;;;59.90;40.55;;;;;;;26.13;38.74;100317.22;5031452;28;20033;-52
2023/03/16 20:49:51;;;;;;;60.92;36.85;;;;;;;26.18;38.40;100313.66;5033768;28;20030;-49
2023/03/16 20:52:23;;;;;;;59.13;38.58;;;;;;;26.12;38.29;100311.09;5032516;28;20562;-51
2023/03/16 20:54:51;;;;;;;71.50;39.40;;;;;;;26.16;38.61;100312.78;5034376;28;20030;-50
2023/03/16 20:57:22;;;;;;;60.63;38.90;;;;;;;26.14;38.33;100319.84;5018333;28;20132;-51
2023/03/16 20:59:50;;;;;;;63.70;40.08;;;;;;;26.15;38.31;100321.56;5014661;28;20475;-50
2023/03/16 21:02:39;;;;;;;57.33;36.70;;;;;;;26.15;38.31;100326.81;5014379;28;20101;-52
2023/03/16 21:05:09;;;;;;;58.92;35.55;;;;;;;26.19;38.31;100332.97;5014405;28;20041;-50
2023/03/16 21:07:36;;;;;;;60.25;33.97;;;;;;;26.23;38.04;100330.28;5022108;28;20041;-50
2023/03/16 21:10:06;;;;;;;50.22;34.03;;;;;;;26.18;38.37;100337.31;5033537;28;20095;-50
2023/03/16 21:12:35;;;;;;;60.60;37.03;;;;;;;26.23;37.82;100334.66;5033033;28;20523;-51
2023/03/16 21:15:15;;;;;;;54.65;35.50;;;;;;;26.20;38.11;100340.81;5033264;28;20029;-49
2023/03/16 21:17:42;;;;;;;51.67;35.80;;;;;;;26.24;38.25;100337.28;5030358;28;20506;-49
2023/03/16 21:20:16;;;;;;;53.75;35.63;;;;;;;26.17;38.31;100340.84;5033216;28;20072;-49
2023/03/16 21:22:43;;;;;;;51.03;35.17;;;;;;;26.18;38.32;100339.94;5033133;28;20474;-50
2023/03/16 21:25:20;;;;;;;56.88;34.47;;;;;;;26.16;38.16;100339.09;5031903;28;20044;-53
2023/03/16 21:27:49;;;;;;;58.95;36.35;;;;;;;26.13;38.45;100341.75;5030307;28;20065;-52
2023/03/16 21:30:21;;;;;;;53.53;34.78;;;;;;;25.96;38.59;100336.56;5031727;28;20075;-49
2023/03/16 21:32:49;;;;;;;57.70;36.35;;;;;;;26.02;38.39;100340.88;5033141;28;20029;-51
2023/03/16 21:35:16;;;;;;;58.85;36.83;;;;;;;26.00;38.10;100337.41;5031840;28;20033;-48
2023/03/16 21:37:44;;;;;;;64.50;37.75;;;;;;;26.09;38.29;100348.72;5030075;28;20037;-52
2023/03/16 21:40:17;;;;;;;58.50;36.17;;;;;;;26.07;38.23;100341.75;5031054;28;20032;-53
2023/03/16 21:42:45;;;;;;;64.70;39.13;;;;;;;26.15;37.92;100341.75;5032754;28;20112;-51
2023/03/16 21:45:13;;;;;;;61.45;39.83;;;;;;;26.15;38.06;100347.00;5032694;28;20025;-52
2023/03/16 21:47:41;;;;;;;64.22;40.88;;;;;;;26.14;38.17;100326.84;5031740;28;20029;-50
